createdAt,value
2018-01-22T00:00:52.891Z,1009.50
2018-01-22T00:01:52.903Z,1009.53
2018-01-22T00:02:52.841Z,1009.49
2018-01-22T00:03:52.827Z,1009.43
2018-01-22T00:04:52.903Z,1009.43
2018-01-22T00:05:52.813Z,1009.38
2018-01-22T00:06:52.782Z,1009.44
2018-01-22T00:07:52.764Z,1009.40
2018-01-22T00:08:52.748Z,1009.39
2018-01-22T00:09:52.721Z,1009.38
2018-01-22T00:10:52.728Z,1009.33
2018-01-22T00:11:52.692Z,1009.30
2018-01-22T00:12:52.675Z,1009.26
2018-01-22T00:13:52.667Z,1009.27
2018-01-22T00:14:52.658Z,1009.26
2018-01-22T00:15:52.654Z,1009.25
2018-01-22T00:16:52.641Z,1009.19
2018-01-22T00:17:52.588Z,1009.14
2018-01-22T00:18:52.584Z,1009.06
2018-01-22T00:19:52.580Z,1009.02
2018-01-22T00:20:52.565Z,1008.98
2018-01-22T00:21:52.557Z,1008.94
2018-01-22T00:22:52.523Z,1008.88
2018-01-22T00:23:52.509Z,1008.81
2018-01-22T00:24:52.482Z,1008.82
2018-01-22T00:25:52.475Z,1008.79
2018-01-22T00:26:52.475Z,1008.79
2018-01-22T00:27:52.432Z,1008.77
2018-01-22T00:28:52.415Z,1008.79
2018-01-22T00:29:52.397Z,1008.78
2018-01-22T00:30:52.369Z,1008.75
2018-01-22T00:31:52.412Z,1008.67
2018-01-22T00:32:52.421Z,1008.55
2018-01-22T00:33:52.323Z,1008.59
2018-01-22T00:34:52.321Z,1008.55
2018-01-22T00:35:52.295Z,1008.48
2018-01-22T00:36:52.312Z,1008.40
2018-01-22T00:37:52.257Z,1008.43
2018-01-22T00:38:52.251Z,1008.38
2018-01-22T00:39:52.227Z,1008.37
2018-01-22T00:40:52.225Z,1008.40
2018-01-22T00:41:52.222Z,1008.36
2018-01-22T00:42:52.203Z,1008.33
2018-01-22T00:43:52.157Z,1008.31
2018-01-22T00:44:52.183Z,1008.28
2018-01-22T00:45:52.124Z,1008.28
2018-01-22T00:46:52.114Z,1008.29
2018-01-22T00:47:52.138Z,1008.27
2018-01-22T00:48:52.095Z,1008.30
2018-01-22T00:49:52.076Z,1008.24
2018-01-22T00:50:52.048Z,1008.23
2018-01-22T00:51:52.047Z,1008.19
2018-01-22T00:52:52.060Z,1008.19
2018-01-22T00:53:52.001Z,1008.19
2018-01-22T00:54:51.994Z,1008.12
2018-01-22T00:55:51.974Z,1008.11
2018-01-22T00:56:51.961Z,1008.14
2018-01-22T00:57:51.950Z,1008.12
2018-01-22T00:58:51.943Z,1008.09
2018-01-22T00:59:51.908Z,1008.07
2018-01-22T01:00:51.888Z,1008.06
2018-01-22T01:01:51.882Z,1008.09
2018-01-22T01:02:51.861Z,1008.06
2018-01-22T01:03:51.884Z,1008.05
2018-01-22T01:04:51.835Z,1008.03
2018-01-22T01:05:51.811Z,1008.00
2018-01-22T01:06:51.795Z,1008.00
2018-01-22T01:07:51.783Z,1007.99
2018-01-22T01:08:51.813Z,1007.98
2018-01-22T01:09:51.791Z,1007.97
2018-01-22T01:10:51.745Z,1007.97
2018-01-22T01:11:51.735Z,1007.87
2018-01-22T01:12:51.740Z,1007.92
2018-01-22T01:13:51.711Z,1007.89
2018-01-22T01:14:51.706Z,1007.79
2018-01-22T01:15:51.654Z,1007.76
2018-01-22T01:16:51.642Z,1007.75
2018-01-22T01:17:51.621Z,1007.72
2018-01-22T01:18:51.648Z,1007.76
2018-01-22T01:19:51.609Z,1007.80
2018-01-22T01:20:51.577Z,1007.75
2018-01-22T01:21:51.560Z,1007.78
2018-01-22T01:22:51.542Z,1007.76
2018-01-22T01:23:51.562Z,1007.72
2018-01-22T01:24:51.536Z,1007.70
2018-01-22T01:25:51.495Z,1007.73
2018-01-22T01:26:51.487Z,1007.76
2018-01-22T01:27:51.467Z,1007.75
2018-01-22T01:28:51.444Z,1007.73
2018-01-22T01:29:51.456Z,1007.71
2018-01-22T01:30:51.416Z,1007.68
2018-01-22T01:31:51.400Z,1007.65
2018-01-22T01:32:51.385Z,1007.61
2018-01-22T01:33:51.387Z,1007.57
2018-01-22T01:34:51.393Z,1007.51
2018-01-22T01:35:51.329Z,1007.48
2018-01-22T01:36:51.320Z,1007.48
2018-01-22T01:37:51.305Z,1007.45
2018-01-22T01:38:51.326Z,1007.47
2018-01-22T01:39:51.321Z,1007.46
2018-01-22T01:40:51.251Z,1007.50
2018-01-22T01:41:51.240Z,1007.49
2018-01-22T01:42:51.223Z,1007.49
2018-01-22T01:43:51.211Z,1007.50
2018-01-22T01:44:51.214Z,1007.51
2018-01-22T01:45:51.174Z,1007.51
2018-01-22T01:46:51.156Z,1007.46
2018-01-22T01:47:51.137Z,1007.41
2018-01-22T01:48:51.143Z,1007.41
2018-01-22T01:49:51.126Z,1007.38
2018-01-22T01:50:51.092Z,1007.38
2018-01-22T01:51:51.089Z,1007.32
2018-01-22T01:52:51.055Z,1007.34
2018-01-22T01:53:51.042Z,1007.29
2018-01-22T01:54:51.073Z,1007.27
2018-01-22T01:55:51.121Z,1007.27
2018-01-22T01:56:50.995Z,1007.28
2018-01-22T01:57:50.977Z,1007.25
2018-01-22T01:58:50.980Z,1007.26
2018-01-22T01:59:50.951Z,1007.24
2018-01-22T02:00:50.949Z,1007.22
2018-01-22T02:01:50.973Z,1007.22
2018-01-22T02:02:50.897Z,1007.25
2018-01-22T02:03:50.882Z,1007.32
2018-01-22T02:04:50.867Z,1007.29
2018-01-22T02:05:50.863Z,1007.30
2018-01-22T02:06:50.834Z,1007.31
2018-01-22T02:07:50.819Z,1007.30
2018-01-22T02:08:50.797Z,1007.28
2018-01-22T02:09:50.783Z,1007.28
2018-01-22T02:10:50.818Z,1007.25
2018-01-22T02:11:50.757Z,1007.26
2018-01-22T02:12:50.735Z,1007.31
2018-01-22T02:13:50.712Z,1007.33
2018-01-22T02:14:50.702Z,1007.33
2018-01-22T02:15:50.713Z,1007.30
2018-01-22T02:16:50.675Z,1007.28
2018-01-22T02:17:50.658Z,1007.29
2018-01-22T02:18:50.640Z,1007.29
2018-01-22T02:19:50.628Z,1007.23
2018-01-22T02:20:50.640Z,1007.19
2018-01-22T02:21:50.590Z,1007.20
2018-01-22T02:22:50.564Z,1007.10
2018-01-22T02:23:50.547Z,1007.17
2018-01-22T02:24:50.536Z,1007.11
2018-01-22T02:25:50.566Z,1007.03
2018-01-22T02:26:50.516Z,1007.02
2018-01-22T02:27:50.491Z,1006.93
2018-01-22T02:28:50.469Z,1006.95
2018-01-22T02:29:50.455Z,1006.92
2018-01-22T02:30:50.488Z,1006.92
2018-01-22T02:31:50.446Z,1006.88
2018-01-22T02:32:50.420Z,1006.85
2018-01-22T02:33:50.400Z,1006.81
2018-01-22T02:34:50.371Z,1006.76
2018-01-22T02:35:50.377Z,1006.79
2018-01-22T02:36:50.372Z,1006.75
2018-01-22T02:37:50.321Z,1006.74
2018-01-22T02:38:50.314Z,1006.76
2018-01-22T02:39:50.289Z,1006.77
2018-01-22T02:40:50.332Z,1006.77
2018-01-22T02:41:50.256Z,1006.80
2018-01-22T02:42:50.243Z,1006.81
2018-01-22T02:43:50.228Z,1006.84
2018-01-22T02:44:50.211Z,1006.79
2018-01-22T02:45:50.214Z,1006.83
2018-01-22T02:46:50.170Z,1006.80
2018-01-22T02:47:50.196Z,1006.73
2018-01-22T02:48:50.156Z,1006.70
2018-01-22T02:49:50.136Z,1006.67
2018-01-22T02:50:50.146Z,1006.69
2018-01-22T02:51:50.144Z,1006.67
2018-01-22T02:52:50.089Z,1006.64
2018-01-22T02:53:50.086Z,1006.65
2018-01-22T02:54:50.058Z,1006.70
2018-01-22T02:55:50.048Z,1006.68
2018-01-22T02:56:50.074Z,1006.68
2018-01-22T02:57:50.013Z,1006.67
2018-01-22T02:58:50.013Z,1006.68
2018-01-22T02:59:49.963Z,1006.60
2018-01-22T03:00:49.970Z,1006.59
2018-01-22T03:01:49.964Z,1006.61
2018-01-22T03:02:49.951Z,1006.55
2018-01-22T03:03:49.898Z,1006.58
2018-01-22T03:04:49.885Z,1006.57
2018-01-22T03:05:49.879Z,1006.55
2018-01-22T03:06:49.884Z,1006.50
2018-01-22T03:07:49.883Z,1006.44
2018-01-22T03:08:49.851Z,1006.40
2018-01-22T03:09:49.823Z,1006.34
2018-01-22T03:10:49.800Z,1006.33
2018-01-22T03:11:49.795Z,1006.28
2018-01-22T03:12:49.846Z,1006.26
2018-01-22T03:13:49.768Z,1006.20
2018-01-22T03:14:49.756Z,1006.18
2018-01-22T03:15:49.737Z,1006.20
2018-01-22T03:16:49.714Z,1006.18
2018-01-22T03:17:49.718Z,1006.13
2018-01-22T03:18:49.683Z,1006.14
2018-01-22T03:19:49.652Z,1006.14
2018-01-22T03:20:49.665Z,1006.24
2018-01-22T03:21:49.632Z,1006.21
2018-01-22T03:22:49.633Z,1006.20
2018-01-22T03:23:49.619Z,1006.19
2018-01-22T03:24:49.582Z,1006.15
2018-01-22T03:25:49.562Z,1006.11
2018-01-22T03:26:49.534Z,1006.08
2018-01-22T03:27:49.601Z,1006.06
2018-01-22T03:28:49.541Z,1005.96
2018-01-22T03:29:49.495Z,1005.88
2018-01-22T03:30:49.506Z,1005.85
2018-01-22T03:31:49.480Z,1005.80
2018-01-22T03:32:49.491Z,1005.83
2018-01-22T03:33:49.471Z,1005.86
2018-01-22T03:34:49.424Z,1005.84
2018-01-22T03:35:49.401Z,1005.85
2018-01-22T03:36:49.386Z,1005.85
2018-01-22T03:37:49.389Z,1005.83
2018-01-22T03:38:49.381Z,1005.83
2018-01-22T03:39:49.393Z,1005.82
2018-01-22T03:40:50.174Z,1005.79
2018-01-22T03:41:49.309Z,1005.73
2018-01-22T03:42:49.290Z,1005.71
2018-01-22T03:43:49.304Z,1005.71
2018-01-22T03:44:49.275Z,1005.68
2018-01-22T03:45:49.239Z,1005.69
2018-01-22T03:46:49.233Z,1005.61
2018-01-22T03:47:49.209Z,1005.65
2018-01-22T03:48:49.223Z,1005.61
2018-01-22T03:49:49.208Z,1005.59
2018-01-22T03:50:49.161Z,1005.58
2018-01-22T03:51:49.151Z,1005.62
2018-01-22T03:52:49.130Z,1005.56
2018-01-22T03:53:49.102Z,1005.57
2018-01-22T03:54:49.150Z,1005.59
2018-01-22T03:55:49.083Z,1005.58
2018-01-22T03:56:49.066Z,1005.47
2018-01-22T03:57:49.053Z,1005.56
2018-01-22T03:58:49.035Z,1005.52
2018-01-22T03:59:49.036Z,1005.55
2018-01-22T04:00:49.011Z,1005.54
2018-01-22T04:01:48.989Z,1005.55
2018-01-22T04:02:48.951Z,1005.58
2018-01-22T04:03:48.949Z,1005.58
2018-01-22T04:04:48.968Z,1005.59
2018-01-22T04:05:48.935Z,1005.57
2018-01-22T04:06:48.918Z,1005.52
2018-01-22T04:07:48.885Z,1005.52
2018-01-22T04:08:48.871Z,1005.56
2018-01-22T04:09:48.882Z,1005.53
2018-01-22T04:10:48.874Z,1005.57
2018-01-22T04:11:48.808Z,1005.56
2018-01-22T04:12:48.815Z,1005.55
2018-01-22T04:13:48.792Z,1005.53
2018-01-22T04:14:48.784Z,1005.52
2018-01-22T04:15:48.790Z,1005.53
2018-01-22T04:16:48.745Z,1005.54
2018-01-22T04:17:48.722Z,1005.52
2018-01-22T04:18:48.706Z,1005.54
2018-01-22T04:19:48.697Z,1005.51
2018-01-22T04:20:48.710Z,1005.54
2018-01-22T04:21:48.657Z,1005.44
2018-01-22T04:22:48.644Z,1005.44
2018-01-22T04:23:48.629Z,1005.48
2018-01-22T04:24:48.608Z,1005.45
2018-01-22T04:25:48.650Z,1005.43
2018-01-22T04:26:48.600Z,1005.46
2018-01-22T04:27:48.564Z,1005.40
2018-01-22T04:28:48.558Z,1005.39
2018-01-22T04:29:48.537Z,1005.36
2018-01-22T04:30:48.521Z,1005.41
2018-01-22T04:31:48.514Z,1005.39
2018-01-22T04:32:48.478Z,1005.35
2018-01-22T04:33:48.482Z,1005.37
2018-01-22T04:34:48.451Z,1005.36
2018-01-22T04:35:48.435Z,1005.42
2018-01-22T04:36:48.442Z,1005.32
2018-01-22T04:37:48.405Z,1005.35
2018-01-22T04:38:48.380Z,1005.35
2018-01-22T04:39:48.371Z,1005.34
2018-01-22T04:40:48.370Z,1005.30
2018-01-22T04:41:48.364Z,1005.20
2018-01-22T04:42:48.318Z,1005.18
2018-01-22T04:43:48.273Z,1005.18
2018-01-22T04:44:48.301Z,1005.16
2018-01-22T04:45:48.271Z,1005.14
2018-01-22T04:46:48.278Z,1005.15
2018-01-22T04:47:48.245Z,1005.17
2018-01-22T04:48:48.214Z,1005.16
2018-01-22T04:49:48.192Z,1005.15
2018-01-22T04:50:48.181Z,1005.17
2018-01-22T04:51:48.185Z,1005.11
2018-01-22T04:52:48.148Z,1005.09
2018-01-22T04:53:48.138Z,1005.14
2018-01-22T04:54:48.123Z,1005.07
2018-01-22T04:55:48.136Z,1005.13
2018-01-22T04:56:48.092Z,1005.17
2018-01-22T04:57:48.079Z,1005.24
2018-01-22T04:58:48.076Z,1005.28
2018-01-22T04:59:48.041Z,1005.26
2018-01-22T05:00:48.026Z,1005.30
2018-01-22T05:01:48.029Z,1005.22
2018-01-22T05:02:48.008Z,1005.22
2018-01-22T05:03:47.971Z,1005.15
2018-01-22T05:04:48.012Z,1005.15
2018-01-22T05:05:47.940Z,1005.10
2018-01-22T05:06:47.920Z,1005.07
2018-01-22T05:07:47.936Z,1005.07
2018-01-22T05:08:47.896Z,1005.06
2018-01-22T05:09:47.902Z,1005.03
2018-01-22T05:10:47.862Z,1005.00
2018-01-22T05:11:47.846Z,1005.03
2018-01-22T05:12:47.851Z,1004.98
2018-01-22T05:13:47.809Z,1005.02
2018-01-22T05:14:47.792Z,1005.10
2018-01-22T05:15:47.832Z,1005.08
2018-01-22T05:16:47.767Z,1005.05
2018-01-22T05:17:47.772Z,1005.12
2018-01-22T05:18:47.737Z,1005.14
2018-01-22T05:19:47.738Z,1005.16
2018-01-22T05:20:47.701Z,1005.12
2018-01-22T05:21:47.692Z,1005.09
2018-01-22T05:22:47.679Z,1005.05
2018-01-22T05:23:47.675Z,1005.02
2018-01-22T05:24:47.629Z,1004.97
2018-01-22T05:25:47.614Z,1004.94
2018-01-22T05:26:47.582Z,1004.90
2018-01-22T05:27:47.581Z,1004.89
2018-01-22T05:28:47.591Z,1004.76
2018-01-22T05:29:47.564Z,1004.75
2018-01-22T05:30:47.577Z,1004.74
2018-01-22T05:31:47.509Z,1004.63
2018-01-22T05:32:47.503Z,1004.52
2018-01-22T05:33:47.525Z,1004.57
2018-01-22T05:34:47.474Z,1004.52
2018-01-22T05:35:47.460Z,1004.49
2018-01-22T05:36:47.439Z,1004.41
2018-01-22T05:37:47.423Z,1004.34
2018-01-22T05:38:47.435Z,1004.37
2018-01-22T05:39:47.425Z,1004.35
2018-01-22T05:40:48.201Z,1004.33
2018-01-22T05:41:47.363Z,1004.33
2018-01-22T05:42:47.346Z,1004.34
2018-01-22T05:43:47.353Z,1004.34
2018-01-22T05:44:47.334Z,1004.36
2018-01-22T05:45:47.306Z,1004.31
2018-01-22T05:46:47.285Z,1004.29
2018-01-22T05:47:47.259Z,1004.26
2018-01-22T05:48:47.253Z,1004.26
2018-01-22T05:49:47.266Z,1004.20
2018-01-22T05:50:47.222Z,1004.21
2018-01-22T05:51:47.205Z,1004.16
2018-01-22T05:52:47.194Z,1004.11
2018-01-22T05:53:47.207Z,1004.10
2018-01-22T05:54:47.186Z,1004.11
2018-01-22T05:55:47.139Z,1004.12
2018-01-22T05:56:47.191Z,1004.10
2018-01-22T05:57:47.101Z,1004.08
2018-01-22T05:58:47.079Z,1004.06
2018-01-22T05:59:47.109Z,1003.98
2018-01-22T06:00:47.041Z,1004.13
2018-01-22T06:01:47.026Z,1004.02
2018-01-22T06:02:47.027Z,1004.12
2018-01-22T06:03:46.987Z,1004.09
2018-01-22T06:04:46.996Z,1004.10
2018-01-22T06:05:47.000Z,1004.07
2018-01-22T06:06:46.956Z,1004.11
2018-01-22T06:07:46.940Z,1004.09
2018-01-22T06:08:46.924Z,1004.05
2018-01-22T06:09:46.917Z,1004.09
2018-01-22T06:10:46.913Z,1004.10
2018-01-22T06:11:46.871Z,1004.12
2018-01-22T06:12:46.889Z,1004.12
2018-01-22T06:13:46.843Z,1004.08
2018-01-22T06:14:46.853Z,1004.05
2018-01-22T06:15:46.847Z,1004.09
2018-01-22T06:16:46.801Z,1004.08
2018-01-22T06:17:46.776Z,1004.13
2018-01-22T06:18:46.763Z,1004.14
2018-01-22T06:19:46.917Z,1004.19
2018-01-22T06:20:46.764Z,1004.20
2018-01-22T06:21:46.714Z,1004.20
2018-01-22T06:22:46.699Z,1004.16
2018-01-22T06:23:46.780Z,1004.18
2018-01-22T06:24:47.651Z,1004.17
2018-01-22T06:25:46.696Z,1004.21
2018-01-22T06:26:46.635Z,1004.18
2018-01-22T06:27:46.630Z,1004.17
2018-01-22T06:28:46.623Z,1004.17
2018-01-22T06:29:46.572Z,1004.16
2018-01-22T06:30:46.593Z,1004.20
2018-01-22T06:31:46.552Z,1004.21
2018-01-22T06:32:46.534Z,1004.23
2018-01-22T06:33:46.518Z,1004.22
2018-01-22T06:34:46.478Z,1004.17
2018-01-22T06:35:46.513Z,1004.21
2018-01-22T06:36:46.457Z,1004.19
2018-01-22T06:37:46.455Z,1004.19
2018-01-22T06:38:46.432Z,1004.18
2018-01-22T06:39:46.442Z,1004.17
2018-01-22T06:40:46.403Z,1004.14
2018-01-22T06:41:46.416Z,1004.15
2018-01-22T06:42:46.447Z,1004.16
2018-01-22T06:43:46.388Z,1004.10
2018-01-22T06:44:46.339Z,1004.12
2018-01-22T06:45:46.429Z,1004.09
2018-01-22T06:46:46.324Z,1004.13
2018-01-22T06:47:46.291Z,1004.16
2018-01-22T06:48:46.270Z,1004.15
2018-01-22T06:49:46.253Z,1004.14
2018-01-22T06:50:46.239Z,1004.15
2018-01-22T06:51:46.250Z,1004.07
2018-01-22T06:52:47.213Z,1004.09
2018-01-22T06:53:46.194Z,1004.07
2018-01-22T06:54:46.175Z,1004.07
2018-01-22T06:55:46.166Z,1004.07
2018-01-22T06:56:46.189Z,1004.02
2018-01-22T06:57:46.154Z,1004.03
2018-01-22T06:58:46.156Z,1004.01
2018-01-22T06:59:46.099Z,1003.97
2018-01-22T07:00:46.083Z,1003.95
2018-01-22T07:01:46.070Z,1003.90
2018-01-22T07:02:46.075Z,1003.87
2018-01-22T07:03:46.035Z,1003.81
2018-01-22T07:04:46.022Z,1003.81
2018-01-22T07:05:46.003Z,1003.81
2018-01-22T07:06:45.998Z,1003.84
2018-01-22T07:07:46.007Z,1003.83
2018-01-22T07:08:45.964Z,1003.85
2018-01-22T07:09:45.937Z,1003.83
2018-01-22T07:10:45.928Z,1003.84
2018-01-22T07:11:45.912Z,1003.80
2018-01-22T07:12:45.931Z,1003.84
2018-01-22T07:13:45.869Z,1003.83
2018-01-22T07:14:45.864Z,1003.85
2018-01-22T07:15:45.823Z,1003.80
2018-01-22T07:16:45.827Z,1003.82
2018-01-22T07:17:45.834Z,1003.85
2018-01-22T07:18:45.796Z,1003.86
2018-01-22T07:19:45.762Z,1003.86
2018-01-22T07:20:45.748Z,1003.86
2018-01-22T07:21:45.746Z,1003.83
2018-01-22T07:22:45.713Z,1003.81
2018-01-22T07:23:45.740Z,1003.85
2018-01-22T07:24:45.694Z,1003.80
2018-01-22T07:25:45.670Z,1003.77
2018-01-22T07:26:45.649Z,1003.74
2018-01-22T07:27:45.643Z,1003.76
2018-01-22T07:28:45.637Z,1003.75
2018-01-22T07:29:45.635Z,1003.80
2018-01-22T07:30:45.584Z,1003.73
2018-01-22T07:31:45.574Z,1003.75
2018-01-22T07:32:45.556Z,1003.73
2018-01-22T07:33:45.575Z,1003.71
2018-01-22T07:34:45.572Z,1003.68
2018-01-22T07:35:45.509Z,1003.66
2018-01-22T07:36:45.503Z,1003.61
2018-01-22T07:37:45.483Z,1003.67
2018-01-22T07:38:45.481Z,1003.56
2018-01-22T07:39:45.484Z,1003.61
2018-01-22T07:40:45.433Z,1003.53
2018-01-22T07:41:46.210Z,1003.53
2018-01-22T07:42:45.397Z,1003.54
2018-01-22T07:43:45.377Z,1003.54
2018-01-22T07:44:45.420Z,1003.54
2018-01-22T07:45:45.397Z,1003.47
2018-01-22T07:46:45.336Z,1003.46
2018-01-22T07:47:45.316Z,1003.51
2018-01-22T07:48:45.292Z,1003.52
2018-01-22T07:49:45.316Z,1003.49
2018-01-22T07:50:45.270Z,1003.48
2018-01-22T07:51:45.295Z,1003.48
2018-01-22T07:52:45.232Z,1003.50
2018-01-22T07:53:45.239Z,1003.49
2018-01-22T07:54:46.238Z,1003.49
2018-01-22T07:55:45.189Z,1003.43
2018-01-22T07:56:45.214Z,1003.37
2018-01-22T07:57:45.208Z,1003.36
2018-01-22T07:58:45.139Z,1003.39
2018-01-22T07:59:45.155Z,1003.36
2018-01-22T08:00:45.130Z,1003.38
2018-01-22T08:01:45.099Z,1003.38
2018-01-22T08:02:45.071Z,1003.25
2018-01-22T08:03:45.060Z,1003.29
2018-01-22T08:04:45.051Z,1003.28
2018-01-22T08:05:45.051Z,1003.23
2018-01-22T08:06:45.010Z,1003.20
2018-01-22T08:07:44.996Z,1003.22
2018-01-22T08:08:44.975Z,1003.23
2018-01-22T08:09:44.964Z,1003.22
2018-01-22T08:10:44.975Z,1003.16
2018-01-22T08:11:44.935Z,1003.14
2018-01-22T08:12:44.920Z,1003.11
2018-01-22T08:13:44.903Z,1003.11
2018-01-22T08:14:44.877Z,1003.08
2018-01-22T08:15:44.915Z,1003.07
2018-01-22T08:16:44.855Z,1003.09
2018-01-22T08:17:44.837Z,1003.08
2018-01-22T08:18:44.841Z,1003.07
2018-01-22T08:19:44.842Z,1003.11
2018-01-22T08:20:44.816Z,1003.08
2018-01-22T08:21:44.766Z,1003.12
2018-01-22T08:22:44.763Z,1003.10
2018-01-22T08:23:44.737Z,1003.15
2018-01-22T08:24:44.716Z,1003.14
2018-01-22T08:25:44.725Z,1003.13
2018-01-22T08:26:44.690Z,1003.15
2018-01-22T08:27:44.676Z,1003.10
2018-01-22T08:28:44.656Z,1003.10
2018-01-22T08:29:44.656Z,1003.16
2018-01-22T08:30:44.667Z,1003.14
2018-01-22T08:31:44.625Z,1003.08
2018-01-22T08:32:44.589Z,1003.10
2018-01-22T08:33:44.569Z,1003.06
2018-01-22T08:34:44.557Z,1003.03
2018-01-22T08:35:44.541Z,1003.06
2018-01-22T08:36:44.547Z,1003.01
2018-01-22T08:37:44.514Z,1003.00
2018-01-22T08:38:44.487Z,1002.99
2018-01-22T08:39:44.473Z,1003.00
2018-01-22T08:40:44.463Z,1002.95
2018-01-22T08:41:44.464Z,1002.96
2018-01-22T08:42:44.423Z,1002.95
2018-01-22T08:43:44.411Z,1003.01
2018-01-22T08:44:44.411Z,1002.96
2018-01-22T08:45:44.421Z,1002.96
2018-01-22T08:46:44.392Z,1002.99
2018-01-22T08:47:44.343Z,1002.94
2018-01-22T08:48:44.331Z,1002.95
2018-01-22T08:49:44.315Z,1002.97
2018-01-22T08:50:44.312Z,1002.96
2018-01-22T08:51:44.287Z,1002.95
2018-01-22T08:52:44.264Z,1002.97
2018-01-22T08:53:44.251Z,1002.94
2018-01-22T08:54:44.264Z,1002.94
2018-01-22T08:55:44.231Z,1002.95
2018-01-22T08:56:44.192Z,1002.90
2018-01-22T08:57:44.195Z,1002.96
2018-01-22T08:58:44.168Z,1002.91
2018-01-22T08:59:44.146Z,1002.92
2018-01-22T09:00:44.157Z,1002.86
2018-01-22T09:01:44.108Z,1002.80
2018-01-22T09:02:44.119Z,1002.80
2018-01-22T09:03:44.081Z,1002.78
2018-01-22T09:04:44.066Z,1002.79
2018-01-22T09:05:44.052Z,1002.77
2018-01-22T09:06:44.054Z,1002.78
2018-01-22T09:07:44.020Z,1002.83
2018-01-22T09:08:44.026Z,1002.77
2018-01-22T09:09:43.984Z,1002.80
2018-01-22T09:10:43.966Z,1002.85
2018-01-22T09:11:43.984Z,1002.80
2018-01-22T09:12:43.940Z,1002.83
2018-01-22T09:13:43.953Z,1002.86
2018-01-22T09:14:43.899Z,1002.84
2018-01-22T09:15:43.879Z,1002.84
2018-01-22T09:16:43.905Z,1002.78
2018-01-22T09:17:43.860Z,1002.80
2018-01-22T09:18:45.211Z,1002.74
2018-01-22T09:19:43.852Z,1002.71
2018-01-22T09:20:43.804Z,1002.69
2018-01-22T09:21:43.792Z,1002.66
2018-01-22T09:22:43.767Z,1002.58
2018-01-22T09:23:43.756Z,1002.54
2018-01-22T09:24:43.756Z,1002.55
2018-01-22T09:25:43.759Z,1002.49
2018-01-22T09:26:43.710Z,1002.47
2018-01-22T09:27:43.697Z,1002.42
2018-01-22T09:28:43.669Z,1002.45
2018-01-22T09:29:43.683Z,1002.43
2018-01-22T09:30:43.646Z,1002.43
2018-01-22T09:31:43.643Z,1002.38
2018-01-22T09:32:43.616Z,1002.40
2018-01-22T09:33:43.593Z,1002.42
2018-01-22T09:34:43.665Z,1002.39
2018-01-22T09:35:43.565Z,1002.39
2018-01-22T09:36:43.551Z,1002.40
2018-01-22T09:37:43.528Z,1002.37
2018-01-22T09:38:43.519Z,1002.33
2018-01-22T09:39:43.524Z,1002.29
2018-01-22T09:40:43.487Z,1002.37
2018-01-22T09:41:43.464Z,1002.36
2018-01-22T09:42:43.468Z,1002.37
2018-01-22T09:43:43.435Z,1002.38
2018-01-22T09:44:43.435Z,1002.39
2018-01-22T09:45:43.425Z,1002.39
2018-01-22T09:46:43.410Z,1002.35
2018-01-22T09:47:43.388Z,1002.31
2018-01-22T09:48:43.353Z,1002.29
2018-01-22T09:49:43.341Z,1002.26
2018-01-22T09:50:43.338Z,1002.22
2018-01-22T09:51:43.330Z,1002.21
2018-01-22T09:52:43.298Z,1002.19
2018-01-22T09:53:43.275Z,1002.22
2018-01-22T09:54:43.260Z,1002.16
2018-01-22T09:55:43.268Z,1002.25
2018-01-22T09:56:43.238Z,1002.19
2018-01-22T09:57:43.214Z,1002.23
2018-01-22T09:58:43.197Z,1002.21
2018-01-22T09:59:43.176Z,1002.17
2018-01-22T10:00:43.191Z,1002.17
2018-01-22T10:01:43.170Z,1002.16
2018-01-22T10:02:43.164Z,1002.14
2018-01-22T10:03:43.117Z,1002.05
2018-01-22T10:04:43.099Z,1002.03
2018-01-22T10:05:43.111Z,1002.01
2018-01-22T10:06:43.090Z,1002.04
2018-01-22T10:07:43.064Z,1001.96
2018-01-22T10:08:43.075Z,1001.99
2018-01-22T10:09:43.065Z,1002.02
2018-01-22T10:10:43.003Z,1002.07
2018-01-22T10:11:43.007Z,1002.07
2018-01-22T10:12:42.980Z,1002.13
2018-01-22T10:13:42.976Z,1002.08
2018-01-22T10:14:42.940Z,1002.09
2018-01-22T10:15:42.925Z,1002.07
2018-01-22T10:16:42.932Z,1002.03
2018-01-22T10:17:42.938Z,1002.10
2018-01-22T10:18:42.882Z,1002.11
2018-01-22T10:19:42.896Z,1002.12
2018-01-22T10:20:42.851Z,1002.08
2018-01-22T10:21:42.832Z,1002.08
2018-01-22T10:22:42.832Z,1002.09
2018-01-22T10:23:42.889Z,1002.09
2018-01-22T10:24:42.794Z,1002.05
2018-01-22T10:25:42.804Z,1002.10
2018-01-22T10:26:42.794Z,1002.13
2018-01-22T10:27:43.722Z,1002.11
2018-01-22T10:28:42.724Z,1002.12
2018-01-22T10:29:43.734Z,1002.05
2018-01-22T10:30:42.685Z,1002.08
2018-01-22T10:31:42.663Z,1002.05
2018-01-22T10:32:42.679Z,1002.04
2018-01-22T10:33:42.656Z,1002.05
2018-01-22T10:34:42.616Z,1002.03
2018-01-22T10:35:42.607Z,1002.03
2018-01-22T10:36:42.589Z,1001.97
2018-01-22T10:37:42.582Z,1002.01
2018-01-22T10:38:42.585Z,1002.00
2018-01-22T10:39:42.546Z,1001.98
2018-01-22T10:40:42.528Z,1001.97
2018-01-22T10:41:42.527Z,1002.01
2018-01-22T10:42:42.505Z,1001.94
2018-01-22T10:43:42.504Z,1001.90
2018-01-22T10:44:42.800Z,1001.90
2018-01-22T10:45:42.457Z,1001.84
2018-01-22T10:46:42.433Z,1001.83
2018-01-22T10:47:42.445Z,1001.86
2018-01-22T10:48:42.445Z,1001.91
2018-01-22T10:49:42.384Z,1001.89
2018-01-22T10:50:42.360Z,1001.86
2018-01-22T10:51:42.348Z,1001.82
2018-01-22T10:52:42.322Z,1001.76
2018-01-22T10:53:42.345Z,1001.77
2018-01-22T10:54:42.299Z,1001.81
2018-01-22T10:55:42.281Z,1001.84
2018-01-22T10:56:42.273Z,1001.77
2018-01-22T10:57:42.252Z,1001.83
2018-01-22T10:58:42.272Z,1001.82
2018-01-22T10:59:42.253Z,1001.85
2018-01-22T11:00:42.206Z,1001.84
2018-01-22T11:01:42.190Z,1001.81
2018-01-22T11:02:42.204Z,1001.82
2018-01-22T11:03:42.187Z,1001.80
2018-01-22T11:04:42.141Z,1001.82
2018-01-22T11:05:42.119Z,1001.80
2018-01-22T11:06:42.105Z,1001.78
2018-01-22T11:07:42.084Z,1001.80
2018-01-22T11:08:42.104Z,1001.76
2018-01-22T11:09:42.093Z,1001.78
2018-01-22T11:10:42.038Z,1001.71
2018-01-22T11:11:42.023Z,1001.65
2018-01-22T11:12:42.009Z,1001.63
2018-01-22T11:13:42.000Z,1001.65
2018-01-22T11:14:41.989Z,1001.63
2018-01-22T11:15:41.959Z,1001.62
2018-01-22T11:16:41.945Z,1001.72
2018-01-22T11:17:41.926Z,1001.70
2018-01-22T11:18:41.939Z,1001.73
2018-01-22T11:19:41.915Z,1001.72
2018-01-22T11:20:41.877Z,1001.69
2018-01-22T11:21:41.854Z,1001.68
2018-01-22T11:22:41.846Z,1001.66
2018-01-22T11:23:41.827Z,1001.68
2018-01-22T11:24:41.853Z,1001.67
2018-01-22T11:25:41.794Z,1001.67
2018-01-22T11:26:41.775Z,1001.71
2018-01-22T11:27:41.758Z,1001.71
2018-01-22T11:28:41.752Z,1001.66
2018-01-22T11:29:41.765Z,1001.71
2018-01-22T11:30:41.716Z,1001.74
2018-01-22T11:31:41.698Z,1001.68
2018-01-22T11:32:41.682Z,1001.65
2018-01-22T11:33:41.697Z,1001.66
2018-01-22T11:34:41.665Z,1001.70
2018-01-22T11:35:41.631Z,1001.67
2018-01-22T11:36:41.612Z,1001.69
2018-01-22T11:37:41.610Z,1001.67
2018-01-22T11:38:41.609Z,1001.68
2018-01-22T11:39:41.597Z,1001.64
2018-01-22T11:40:41.547Z,1001.60
2018-01-22T11:41:41.530Z,1001.59
2018-01-22T11:42:41.521Z,1001.61
2018-01-22T11:43:41.551Z,1001.53
2018-01-22T11:44:41.495Z,1001.60
2018-01-22T11:45:41.487Z,1001.50
2018-01-22T11:46:41.463Z,1001.57
2018-01-22T11:47:41.437Z,1001.47
2018-01-22T11:48:41.447Z,1001.50
2018-01-22T11:49:41.401Z,1001.46
2018-01-22T11:50:41.409Z,1001.42
2018-01-22T11:51:41.370Z,1001.44
2018-01-22T11:52:41.355Z,1001.47
2018-01-22T11:53:41.344Z,1001.45
2018-01-22T11:54:41.315Z,1001.43
2018-01-22T11:55:41.336Z,1001.46
2018-01-22T11:56:41.282Z,1001.43
2018-01-22T11:57:41.270Z,1001.48
2018-01-22T11:58:41.261Z,1001.51
2018-01-22T11:59:41.241Z,1001.55
2018-01-22T12:00:41.240Z,1001.49
2018-01-22T12:01:41.219Z,1001.52
2018-01-22T12:02:41.190Z,1001.52
2018-01-22T12:03:41.198Z,1001.45
2018-01-22T12:04:41.190Z,1001.50
2018-01-22T12:05:41.138Z,1001.48